createdAt,value
2023-05-14T00:00:32.755Z,100580.28
2023-05-14T00:02:59.538Z,100583.50
2023-05-14T00:05:26.304Z,100578.94
2023-05-14T00:07:52.870Z,100577.50
2023-05-14T00:10:21.900Z,100578.00
2023-05-14T00:12:48.899Z,100572.09
2023-05-14T00:15:15.533Z,100566.59
2023-05-14T00:17:42.532Z,100561.84
2023-05-14T00:20:12.033Z,100561.47
2023-05-14T00:22:39.468Z,100558.69
2023-05-14T00:25:07.436Z,100556.03
2023-05-14T00:27:34.746Z,100549.50
2023-05-14T00:30:01.352Z,100562.19
2023-05-14T00:32:27.916Z,100549.06
2023-05-14T00:34:54.497Z,100547.34
2023-05-14T00:37:21.043Z,100547.69
2023-05-14T00:39:47.558Z,100550.66
2023-05-14T00:42:14.131Z,100535.41
2023-05-14T00:44:40.768Z,100538.97
2023-05-14T00:47:08.375Z,100544.50
2023-05-14T00:49:35.506Z,100536.63
2023-05-14T00:52:02.416Z,100537.78
2023-05-14T00:54:29.952Z,100543.84
2023-05-14T00:56:56.927Z,100545.19
2023-05-14T00:59:23.477Z,100538.13
2023-05-14T01:01:50.116Z,100541.00
2023-05-14T01:04:16.835Z,100541.28
2023-05-14T01:06:46.263Z,100542.44
2023-05-14T01:09:36.996Z,100539.44
2023-05-14T01:12:26.991Z,100533.38
2023-05-14T01:15:02.655Z,100534.34
2023-05-14T01:17:33.215Z,100531.69
2023-05-14T01:20:00.560Z,100531.78
2023-05-14T01:22:27.229Z,100528.19
2023-05-14T01:24:53.753Z,100528.81
2023-05-14T01:27:20.223Z,100535.25
2023-05-14T01:29:54.102Z,100533.78
2023-05-14T01:32:24.508Z,100532.81
2023-05-14T01:34:52.284Z,100540.47
2023-05-14T01:37:19.515Z,100538.19
2023-05-14T01:39:46.628Z,100527.69
2023-05-14T01:42:13.609Z,100535.03
2023-05-14T01:44:40.641Z,100524.47
2023-05-14T01:47:07.157Z,100525.34
2023-05-14T01:49:33.741Z,100532.09
2023-05-14T01:52:00.400Z,100528.94
2023-05-14T01:54:26.908Z,100527.44
2023-05-14T01:56:53.434Z,100530.09
2023-05-14T01:59:19.979Z,100525.50
2023-05-14T02:01:46.572Z,100529.47
2023-05-14T02:04:13.211Z,100523.41
2023-05-14T02:06:39.733Z,100528.81
2023-05-14T02:09:06.346Z,100528.75
2023-05-14T02:11:32.933Z,100527.44
2023-05-14T02:13:59.469Z,100526.53
2023-05-14T02:16:26.080Z,100520.22
2023-05-14T02:18:52.892Z,100522.97
2023-05-14T02:21:19.451Z,100520.78
2023-05-14T02:23:46.116Z,100523.25
2023-05-14T02:26:12.667Z,100523.19
2023-05-14T02:28:39.186Z,100524.88
2023-05-14T02:31:05.904Z,100512.09
2023-05-14T02:33:32.760Z,100514.31
2023-05-14T02:35:59.382Z,100520.03
2023-05-14T02:38:26.551Z,100514.06
2023-05-14T02:40:53.161Z,100520.88
2023-05-14T02:43:19.735Z,100521.19
2023-05-14T02:45:46.295Z,100525.16
2023-05-14T02:48:12.938Z,100526.28
2023-05-14T02:50:39.616Z,100521.88
2023-05-14T02:53:06.178Z,100526.69
2023-05-14T02:55:32.658Z,100518.72
2023-05-14T02:57:59.240Z,100524.50
2023-05-14T03:00:25.932Z,100520.66
2023-05-14T03:02:53.069Z,100522.34
2023-05-14T03:05:20.322Z,100519.88
2023-05-14T03:07:46.881Z,100519.97
2023-05-14T03:10:13.441Z,100527.75
2023-05-14T03:12:40.129Z,100519.22
2023-05-14T03:15:07.337Z,100519.16
2023-05-14T03:17:33.884Z,100515.56
2023-05-14T03:20:00.704Z,100516.09
2023-05-14T03:22:27.377Z,100516.94
2023-05-14T03:24:53.888Z,100523.59
2023-05-14T03:27:20.842Z,100515.94
2023-05-14T03:29:47.372Z,100519.09
2023-05-14T03:32:14.520Z,100514.31
2023-05-14T03:34:41.535Z,100522.72
2023-05-14T03:37:08.048Z,100515.06
2023-05-14T03:39:34.738Z,100514.03
2023-05-14T03:42:01.338Z,100506.72
2023-05-14T03:44:27.898Z,100499.84
2023-05-14T03:46:54.423Z,100501.84
2023-05-14T03:49:20.974Z,100504.50
2023-05-14T03:51:47.518Z,100505.59
2023-05-14T03:54:14.036Z,100494.47
2023-05-14T03:56:40.537Z,100501.84
2023-05-14T03:59:07.074Z,100497.00
2023-05-14T04:01:33.619Z,100498.94
2023-05-14T04:04:00.246Z,100492.31
2023-05-14T04:06:26.883Z,100493.84
2023-05-14T04:08:53.750Z,100484.38
2023-05-14T04:11:21.346Z,100479.22
2023-05-14T04:13:47.946Z,100483.78
2023-05-14T04:16:14.479Z,100485.66
2023-05-14T04:18:41.043Z,100481.25
2023-05-14T04:21:07.697Z,100487.78
2023-05-14T04:23:34.306Z,100486.06
2023-05-14T04:26:01.021Z,100485.41
2023-05-14T04:28:27.566Z,100479.06
2023-05-14T04:30:54.146Z,100485.03
2023-05-14T04:33:20.749Z,100479.47
2023-05-14T04:35:47.334Z,100481.56
2023-05-14T04:38:14.471Z,100478.34
2023-05-14T04:40:43.792Z,100482.22
2023-05-14T04:43:10.741Z,100479.19
2023-05-14T04:45:37.323Z,100476.94
2023-05-14T04:48:04.812Z,100468.25
2023-05-14T04:50:31.458Z,100459.50
2023-05-14T04:52:57.958Z,100458.75
2023-05-14T04:55:24.599Z,100460.28
2023-05-14T04:57:51.231Z,100459.16
2023-05-14T05:00:18.124Z,100463.78
2023-05-14T05:02:44.896Z,100453.63
2023-05-14T05:05:11.629Z,100448.13
2023-05-14T05:07:38.148Z,100461.06
2023-05-14T05:10:05.015Z,100458.97
2023-05-14T05:12:31.561Z,100464.09
2023-05-14T05:14:58.138Z,100458.78
2023-05-14T05:17:25.135Z,100457.28
2023-05-14T05:19:52.575Z,100456.06
2023-05-14T05:22:20.312Z,100447.25
2023-05-14T05:24:49.239Z,100453.19
2023-05-14T05:27:16.565Z,100453.13
2023-05-14T05:29:44.515Z,100447.97
2023-05-14T05:32:11.134Z,100452.91
2023-05-14T05:34:37.763Z,100445.66
2023-05-14T05:37:06.056Z,100449.50
2023-05-14T05:39:35.070Z,100447.28
2023-05-14T05:42:02.571Z,100439.63
2023-05-14T05:44:29.174Z,100438.66
2023-05-14T05:46:57.263Z,100441.66
2023-05-14T05:49:24.257Z,100443.25
2023-05-14T05:51:50.881Z,100439.84
2023-05-14T05:54:17.465Z,100438.69
2023-05-14T05:56:44.036Z,100435.81
2023-05-14T05:59:10.572Z,100438.69
2023-05-14T06:01:37.351Z,100437.41
2023-05-14T06:04:06.238Z,100438.59
2023-05-14T06:06:33.053Z,100436.28
2023-05-14T06:08:59.709Z,100432.94
2023-05-14T06:11:26.578Z,100436.75
2023-05-14T06:13:53.598Z,100432.72
2023-05-14T06:16:20.947Z,100433.78
2023-05-14T06:18:47.666Z,100435.50
2023-05-14T06:21:14.194Z,100433.25
2023-05-14T06:23:41.301Z,100433.81
2023-05-14T06:26:07.831Z,100425.91
2023-05-14T06:28:34.448Z,100426.75
2023-05-14T06:31:01.051Z,100427.00
2023-05-14T06:33:31.288Z,100428.59
2023-05-14T06:36:06.793Z,100427.28
2023-05-14T06:38:33.771Z,100435.44
2023-05-14T06:41:00.319Z,100427.06
2023-05-14T06:43:26.916Z,100430.44
2023-05-14T06:45:53.870Z,100428.44
2023-05-14T06:48:20.906Z,100419.03
2023-05-14T06:50:49.048Z,100418.59
2023-05-14T06:53:15.701Z,100414.22
2023-05-14T06:55:42.281Z,100427.50
2023-05-14T06:58:09.453Z,100422.75
2023-05-14T07:00:36.052Z,100411.13
2023-05-14T07:03:02.677Z,100411.13
2023-05-14T07:05:29.335Z,100402.38
2023-05-14T07:07:55.928Z,100408.22
2023-05-14T07:10:22.843Z,100405.22
2023-05-14T07:12:49.800Z,100407.06
2023-05-14T07:15:16.500Z,100401.03
2023-05-14T07:17:43.128Z,100394.16
2023-05-14T07:20:10.294Z,100393.84
2023-05-14T07:22:36.805Z,100393.69
2023-05-14T07:25:03.567Z,100389.25
2023-05-14T07:27:30.143Z,100385.34
2023-05-14T07:29:56.651Z,100384.88
2023-05-14T07:32:25.149Z,100386.31
2023-05-14T07:34:51.817Z,100379.03
2023-05-14T07:37:18.899Z,100377.44
2023-05-14T07:39:45.650Z,100377.06
2023-05-14T07:42:19.379Z,100380.56
2023-05-14T07:44:51.959Z,100373.19
2023-05-14T07:47:18.596Z,100371.81
2023-05-14T07:49:45.309Z,100375.72
2023-05-14T07:52:11.928Z,100366.25
2023-05-14T07:54:38.637Z,100364.88
2023-05-14T07:57:05.450Z,100359.34
2023-05-14T07:59:32.126Z,100363.09
2023-05-14T08:01:58.782Z,100364.91
2023-05-14T08:04:25.482Z,100363.88
2023-05-14T08:06:52.022Z,100365.38
2023-05-14T08:09:18.606Z,100368.91
2023-05-14T08:11:45.283Z,100366.94
2023-05-14T08:14:11.880Z,100361.75
2023-05-14T08:16:38.855Z,100359.78
2023-05-14T08:19:05.665Z,100356.88
2023-05-14T08:21:32.766Z,100361.22
2023-05-14T08:23:59.503Z,100350.88
2023-05-14T08:26:26.199Z,100351.09
2023-05-14T08:28:54.522Z,100342.25
2023-05-14T08:31:21.156Z,100343.16
2023-05-14T08:33:47.758Z,100338.84
2023-05-14T08:36:14.434Z,100345.06
2023-05-14T08:38:42.062Z,100337.91
2023-05-14T08:41:09.191Z,100347.63
2023-05-14T08:44:06.762Z,100339.59
2023-05-14T08:46:34.455Z,100355.00
2023-05-14T08:49:11.268Z,100340.25
2023-05-14T08:51:38.422Z,100348.69
2023-05-14T08:54:05.866Z,100345.88
2023-05-14T08:56:33.392Z,100340.25
2023-05-14T08:59:00.449Z,100347.50
2023-05-14T09:01:27.142Z,100335.84
2023-05-14T09:03:55.039Z,100332.63
2023-05-14T09:06:22.584Z,100336.59
2023-05-14T09:08:49.319Z,100339.25
2023-05-14T09:11:15.856Z,100339.00
2023-05-14T09:13:43.030Z,100340.50
2023-05-14T09:16:09.584Z,100330.22
2023-05-14T09:18:36.904Z,100325.06
2023-05-14T09:21:04.426Z,100324.97
2023-05-14T09:23:33.873Z,100323.34
2023-05-14T09:26:04.641Z,100322.19
2023-05-14T09:28:31.223Z,100315.53
2023-05-14T09:30:57.885Z,100317.88
2023-05-14T09:33:28.488Z,100313.31
2023-05-14T09:36:02.283Z,100310.72
2023-05-14T09:38:30.246Z,100304.69
2023-05-14T09:40:57.980Z,100303.34
2023-05-14T09:43:24.711Z,100290.00
2023-05-14T09:45:51.282Z,100292.81
2023-05-14T09:48:17.882Z,100289.47
2023-05-14T09:50:45.445Z,100285.25
2023-05-14T09:53:13.634Z,100286.28
2023-05-14T09:55:40.331Z,100284.16
2023-05-14T09:58:06.888Z,100279.88
2023-05-14T10:00:34.800Z,100273.72
2023-05-14T10:03:07.117Z,100273.44
2023-05-14T10:05:38.298Z,100274.13
2023-05-14T10:08:10.065Z,100272.16
2023-05-14T10:10:37.992Z,100272.25
2023-05-14T10:13:07.689Z,100261.44
2023-05-14T10:15:40.622Z,100261.81
2023-05-14T10:18:12.247Z,100263.91
2023-05-14T10:20:41.039Z,100246.84
2023-05-14T10:23:07.837Z,100255.97
2023-05-14T10:25:36.877Z,100259.41
2023-05-14T10:28:03.595Z,100257.41
2023-05-14T10:30:30.178Z,100256.66
2023-05-14T10:33:07.340Z,100252.47
2023-05-14T10:36:02.645Z,100247.72
2023-05-14T10:38:32.843Z,100252.16
2023-05-14T10:41:14.926Z,100242.38
2023-05-14T10:43:42.266Z,100238.22
2023-05-14T10:46:10.567Z,100246.13
2023-05-14T10:48:40.947Z,100243.97
2023-05-14T10:51:09.297Z,100241.28
2023-05-14T10:53:36.827Z,100242.41
2023-05-14T10:56:05.860Z,100242.56
2023-05-14T10:58:35.314Z,100237.91
2023-05-14T11:01:02.199Z,100235.66
2023-05-14T11:03:32.196Z,100233.16
2023-05-14T11:06:03.291Z,100222.88
2023-05-14T11:08:31.331Z,100231.28
2023-05-14T11:10:57.934Z,100227.34
2023-05-14T11:13:26.694Z,100223.31
2023-05-14T11:15:53.600Z,100220.25
2023-05-14T11:18:31.038Z,100214.84
2023-05-14T11:21:01.340Z,100209.25
2023-05-14T11:23:28.647Z,100216.22
2023-05-14T11:25:56.538Z,100214.34
2023-05-14T11:28:24.293Z,100215.63
2023-05-14T11:30:51.520Z,100206.72
2023-05-14T11:33:18.899Z,100205.63
2023-05-14T11:35:46.596Z,100211.41
2023-05-14T11:38:21.185Z,100202.03
2023-05-14T11:40:59.220Z,100193.59
2023-05-14T11:43:29.260Z,100193.19
2023-05-14T11:45:56.530Z,100190.38
2023-05-14T11:48:24.243Z,100186.31
2023-05-14T11:50:52.114Z,100187.84
2023-05-14T11:53:30.833Z,100181.34
2023-05-14T11:55:57.958Z,100188.72
2023-05-14T11:58:24.784Z,100181.66
2023-05-14T12:00:52.561Z,100179.03
2023-05-14T12:03:26.010Z,100173.69
2023-05-14T12:06:00.067Z,100162.00
2023-05-14T12:08:29.032Z,100153.34
2023-05-14T12:10:56.292Z,100158.31
2023-05-14T12:13:26.632Z,100159.22
2023-05-14T12:15:59.325Z,100154.81
2023-05-14T12:18:27.596Z,100160.03
2023-05-14T12:20:54.442Z,100155.78
2023-05-14T12:23:31.028Z,100147.63
2023-05-14T12:26:06.544Z,100156.50
2023-05-14T12:28:37.679Z,100147.03
2023-05-14T12:31:05.054Z,100146.59
2023-05-14T12:33:34.893Z,100139.28
2023-05-14T12:36:10.052Z,100146.47
2023-05-14T12:38:46.768Z,100132.91
2023-05-14T12:41:13.288Z,100128.34
2023-05-14T12:43:42.719Z,100121.94
2023-05-14T12:46:09.474Z,100127.50
2023-05-14T12:48:36.039Z,100121.25
2023-05-14T12:51:02.583Z,100122.16
2023-05-14T12:53:29.112Z,100117.53
2023-05-14T12:55:55.678Z,100108.88
2023-05-14T12:58:22.637Z,100116.91
2023-05-14T13:00:49.280Z,100098.97
2023-05-14T13:03:15.981Z,100105.09
2023-05-14T13:05:42.608Z,100099.03
2023-05-14T13:08:09.437Z,100102.59
2023-05-14T13:10:36.116Z,100105.88
2023-05-14T13:13:02.627Z,100105.75
2023-05-14T13:23:56.311Z,100103.47
2023-05-14T13:26:22.925Z,100099.06
2023-05-14T13:28:49.461Z,100102.78
2023-05-14T13:31:16.172Z,100094.59
2023-05-14T13:33:44.565Z,100100.06
2023-05-14T13:36:13.481Z,100096.91
2023-05-14T13:38:40.098Z,100089.31
2023-05-14T13:41:06.789Z,100094.97
2023-05-14T13:43:34.561Z,100087.56
2023-05-14T13:46:02.384Z,100090.72
2023-05-14T13:48:29.331Z,100097.50
2023-05-14T13:50:55.906Z,100091.09
2023-05-14T13:53:23.886Z,100087.56
2023-05-14T13:55:50.777Z,100087.22
2023-05-14T13:58:17.438Z,100082.50
2023-05-14T14:00:43.972Z,100086.06
2023-05-14T14:03:10.674Z,100078.97
2023-05-14T14:05:37.618Z,100081.56
2023-05-14T14:08:13.124Z,100079.66
2023-05-14T14:10:49.687Z,100079.78
2023-05-14T14:13:16.354Z,100074.44
2023-05-14T14:15:43.765Z,100068.56
2023-05-14T14:18:10.598Z,100062.72
2023-05-14T14:20:37.147Z,100059.47
2023-05-14T14:23:03.675Z,100056.25
2023-05-14T14:25:30.337Z,100053.69
2023-05-14T14:27:56.941Z,100050.16
2023-05-14T14:30:23.499Z,100054.47
2023-05-14T14:32:50.651Z,100053.44
2023-05-14T14:35:19.779Z,100056.13
2023-05-14T14:37:50.766Z,100053.13
2023-05-14T14:40:17.415Z,100042.53
2023-05-14T14:42:44.361Z,100047.72
2023-05-14T14:45:11.903Z,100037.78
2023-05-14T14:47:38.641Z,100041.00
2023-05-14T14:50:06.219Z,100045.56
2023-05-14T14:52:33.051Z,100047.59
2023-05-14T14:54:59.620Z,100048.78
2023-05-14T14:57:26.864Z,100044.41
2023-05-14T14:59:53.500Z,100038.72
2023-05-14T15:02:20.277Z,100024.78
2023-05-14T15:04:46.952Z,100031.78
2023-05-14T15:07:15.887Z,100032.28
2023-05-14T15:09:42.365Z,100036.84
2023-05-14T15:12:10.157Z,100038.78
2023-05-14T15:14:36.766Z,100032.91
2023-05-14T15:17:03.562Z,100037.06
2023-05-14T15:19:31.803Z,100035.63
2023-05-14T15:21:58.583Z,100032.75
2023-05-14T15:24:26.172Z,100027.13
2023-05-14T15:26:53.746Z,100029.63
2023-05-14T15:29:20.503Z,100030.72
2023-05-14T15:31:47.229Z,100028.25
2023-05-14T15:34:13.818Z,100026.78
2023-05-14T15:36:40.627Z,100015.50
2023-05-14T15:39:10.207Z,100016.91
2023-05-14T15:41:36.881Z,100014.41
2023-05-14T15:44:03.712Z,100008.34
2023-05-14T15:46:31.043Z,100012.25
2023-05-14T15:48:58.211Z,100013.78
2023-05-14T15:51:24.753Z,100012.28
2023-05-14T15:53:53.474Z,100014.25
2023-05-14T15:56:20.936Z,100009.72
2023-05-14T15:58:47.476Z,100006.09
2023-05-14T16:01:14.038Z,100016.72
2023-05-14T16:03:40.776Z,100010.31
2023-05-14T16:06:07.595Z,100009.81
2023-05-14T16:08:34.121Z,100009.69
2023-05-14T16:11:03.210Z,100005.03
2023-05-14T16:13:29.741Z,100007.81
2023-05-14T16:15:56.423Z,100006.47
2023-05-14T16:18:25.167Z,100013.75
2023-05-14T16:20:52.028Z,100016.16
2023-05-14T16:23:18.902Z,100015.97
2023-05-14T16:25:45.501Z,100007.59
2023-05-14T16:28:12.332Z,100018.56
2023-05-14T16:30:38.943Z,100015.72
2023-05-14T16:33:06.487Z,100013.06
2023-05-14T16:35:33.861Z,100027.78
2023-05-14T16:38:00.441Z,100025.09
2023-05-14T16:40:26.974Z,100024.81
2023-05-14T16:42:53.671Z,100035.09
2023-05-14T16:45:20.316Z,100029.78
2023-05-14T16:47:46.882Z,100029.31
2023-05-14T16:50:14.913Z,100024.44
2023-05-14T16:52:41.474Z,100028.63
2023-05-14T16:55:08.481Z,100033.59
2023-05-14T16:57:35.229Z,100028.94
2023-05-14T17:00:05.009Z,100026.72
2023-05-14T17:02:32.775Z,100017.78
2023-05-14T17:04:59.634Z,100017.75
2023-05-14T17:07:26.254Z,100017.75
2023-05-14T17:09:52.833Z,100013.50
2023-05-14T17:12:19.369Z,100009.03
2023-05-14T17:14:45.902Z,100010.59
2023-05-14T17:17:12.456Z,100005.88
2023-05-14T17:19:38.991Z,100007.22
2023-05-14T17:22:05.930Z,100002.97
2023-05-14T17:24:32.872Z,99999.19
2023-05-14T17:26:59.416Z,100003.50
2023-05-14T17:29:26.303Z,100016.53
2023-05-14T17:31:52.982Z,100013.41
2023-05-14T17:34:22.273Z,100015.56
2023-05-14T17:36:48.912Z,100012.13
2023-05-14T17:39:16.053Z,100005.38
2023-05-14T17:41:42.885Z,100003.53
2023-05-14T17:44:11.385Z,100016.63
2023-05-14T17:46:39.520Z,100001.56
2023-05-14T17:49:06.128Z,100010.78
2023-05-14T17:51:32.650Z,100008.63
2023-05-14T17:53:59.150Z,100009.53
2023-05-14T17:56:25.951Z,100019.19
2023-05-14T17:58:52.731Z,100008.53
2023-05-14T18:01:19.387Z,100011.38
2023-05-14T18:03:46.213Z,100013.75
2023-05-14T18:06:12.948Z,100009.00
2023-05-14T18:08:39.587Z,100021.06
2023-05-14T18:11:06.860Z,100013.72
2023-05-14T18:13:33.506Z,100009.25
2023-05-14T18:16:00.822Z,100005.03
2023-05-14T18:18:27.503Z,100008.25
2023-05-14T18:20:54.111Z,100012.19
2023-05-14T18:23:20.661Z,100007.00
2023-05-14T18:25:48.178Z,100011.22
2023-05-14T18:28:15.313Z,100010.53
2023-05-14T18:30:43.449Z,100015.69
2023-05-14T18:33:10.293Z,100021.16
2023-05-14T18:35:37.310Z,100028.19
2023-05-14T18:38:04.083Z,100021.13
2023-05-14T18:40:30.706Z,100028.25
2023-05-14T18:42:58.054Z,100025.28
2023-05-14T18:45:25.020Z,100034.59
2023-05-14T18:47:52.124Z,100024.22
2023-05-14T18:50:18.900Z,100037.09
2023-05-14T18:52:45.510Z,100031.88
2023-05-14T18:55:12.066Z,100033.13
2023-05-14T18:57:38.590Z,100034.81
2023-05-14T19:00:06.210Z,100031.25
2023-05-14T19:02:32.828Z,100039.59
2023-05-14T19:04:59.378Z,100040.72
2023-05-14T19:07:27.207Z,100044.53
2023-05-14T19:09:53.705Z,100039.47
2023-05-14T19:12:20.232Z,100052.34
2023-05-14T19:14:46.740Z,100055.00
2023-05-14T19:17:13.383Z,100056.75
2023-05-14T19:19:39.908Z,100060.28
2023-05-14T19:22:07.149Z,100055.81
2023-05-14T19:24:33.844Z,100057.34
2023-05-14T19:27:00.855Z,100058.06
2023-05-14T19:29:27.395Z,100059.09
2023-05-14T19:31:54.123Z,100055.44
2023-05-14T19:34:20.753Z,100060.34
2023-05-14T19:36:47.395Z,100060.22
2023-05-14T19:39:13.909Z,100060.34
2023-05-14T19:41:40.633Z,100056.56
2023-05-14T19:44:07.442Z,100059.50
2023-05-14T19:46:34.204Z,100051.41
2023-05-14T19:49:00.780Z,100044.44
2023-05-14T19:51:27.512Z,100041.66
2023-05-14T19:53:54.114Z,100048.34
2023-05-14T19:56:21.678Z,100035.72
2023-05-14T19:58:48.329Z,100044.69
2023-05-14T20:01:15.131Z,100042.19
2023-05-14T20:03:41.919Z,100043.88
2023-05-14T20:06:08.498Z,100043.06
2023-05-14T20:08:35.036Z,100038.97
2023-05-14T20:11:01.981Z,100039.19
2023-05-14T20:13:31.657Z,100034.47
2023-05-14T20:15:58.780Z,100036.66
2023-05-14T20:18:25.438Z,100028.69
2023-05-14T20:20:52.006Z,100025.19
2023-05-14T20:23:18.955Z,100028.09
2023-05-14T20:25:45.522Z,100011.69
2023-05-14T20:28:12.123Z,100018.06
2023-05-14T20:30:39.145Z,100017.72
2023-05-14T20:33:06.521Z,100014.69
2023-05-14T20:35:33.271Z,100024.09
2023-05-14T20:38:00.230Z,100010.97
2023-05-14T20:40:26.841Z,100004.66
2023-05-14T20:42:53.484Z,100006.41
2023-05-14T20:45:20.116Z,100000.53
2023-05-14T20:47:46.738Z,100007.81
2023-05-14T20:50:13.740Z,100003.28
2023-05-14T20:52:40.679Z,100001.66
2023-05-14T20:55:08.021Z,99991.53
2023-05-14T20:57:34.618Z,99994.78
2023-05-14T21:00:02.530Z,99990.19
2023-05-14T21:02:29.165Z,99990.91
2023-05-14T21:04:55.913Z,99987.78
2023-05-14T21:07:22.764Z,99981.63
2023-05-14T21:09:52.474Z,99979.09
2023-05-14T21:12:19.552Z,99982.81
2023-05-14T21:14:46.396Z,99981.25
2023-05-14T21:17:12.994Z,99976.13
2023-05-14T21:19:39.771Z,99982.34
2023-05-14T21:22:06.879Z,99974.59
2023-05-14T21:24:34.135Z,99970.63
2023-05-14T21:27:07.190Z,99969.88
2023-05-14T21:29:34.860Z,99965.44
2023-05-14T21:32:01.668Z,99971.63
2023-05-14T21:34:29.866Z,99972.03
2023-05-14T21:36:58.386Z,99962.56
2023-05-14T21:39:24.953Z,99960.81
2023-05-14T21:41:51.855Z,99958.75
2023-05-14T21:44:18.856Z,99958.25
2023-05-14T21:46:50.189Z,99956.63
2023-05-14T21:49:16.721Z,99953.47
2023-05-14T21:51:43.271Z,99952.31
2023-05-14T21:54:09.823Z,99945.41
2023-05-14T21:56:37.201Z,99946.34
2023-05-14T21:59:03.746Z,99933.09
2023-05-14T22:01:30.356Z,99938.38
2023-05-14T22:03:58.023Z,99933.66
2023-05-14T22:06:24.895Z,99927.19
2023-05-14T22:08:51.529Z,99931.75
2023-05-14T22:11:18.069Z,99919.25
2023-05-14T22:13:47.522Z,99932.94
2023-05-14T22:16:19.633Z,99932.88
2023-05-14T22:18:47.223Z,99934.31
2023-05-14T22:21:13.851Z,99926.00
2023-05-14T22:23:40.401Z,99926.22
2023-05-14T22:26:07.152Z,99918.88
2023-05-14T22:28:33.644Z,99918.66
2023-05-14T22:31:00.406Z,99915.91
2023-05-14T22:33:27.060Z,99913.03
2023-05-14T22:35:53.613Z,99913.59
2023-05-14T22:38:20.719Z,99912.41
2023-05-14T22:40:47.242Z,99912.88
2023-05-14T22:43:13.776Z,99912.16
2023-05-14T22:45:40.389Z,99906.75
2023-05-14T22:48:07.184Z,99904.09
2023-05-14T22:50:33.764Z,99899.78
2023-05-14T22:53:00.335Z,99899.47
2023-05-14T22:55:27.364Z,99895.34
2023-05-14T22:57:54.146Z,99890.00
2023-05-14T23:00:20.691Z,99883.63
2023-05-14T23:02:47.269Z,99888.09
2023-05-14T23:05:13.808Z,99882.50
2023-05-14T23:07:40.612Z,99877.00
2023-05-14T23:10:07.514Z,99869.25
2023-05-14T23:12:34.222Z,99869.25
2023-05-14T23:15:00.795Z,99865.88
2023-05-14T23:17:27.529Z,99866.25
2023-05-14T23:19:54.294Z,99863.00
2023-05-14T23:22:21.087Z,99856.47
2023-05-14T23:24:47.599Z,99849.97
2023-05-14T23:27:14.159Z,99850.03
2023-05-14T23:29:41.923Z,99852.19
2023-05-14T23:32:08.704Z,99848.69
2023-05-14T23:34:35.470Z,99845.66
2023-05-14T23:37:02.312Z,99843.47
2023-05-14T23:39:28.970Z,99841.28
2023-05-14T23:41:55.581Z,99829.13
2023-05-14T23:44:22.152Z,99829.97
2023-05-14T23:46:48.848Z,99826.72
2023-05-14T23:49:15.500Z,99824.28
2023-05-14T23:51:42.107Z,99824.28
2023-05-14T23:54:08.632Z,99822.47
2023-05-14T23:56:35.840Z,99819.69
2023-05-14T23:59:03.590Z,99819.59
